Time,TemperatureF,DewpointF,PressureIn,WindDirection,WindDirectionDegrees,WindSpeedMPH,WindSpeedGustMPH,Humidity,HourlyPrecipIn,Conditions,Clouds,dailyrainin,SoftwareType,DateUTC
2013-08-08 00:00:00,70.2,67.1,29.57,SE,135,0.4,0.4,90,0.00,,,0.00,WUHU216HW,2013-08-08 04:00:00,
2013-08-08 00:01:00,70.2,67.1,29.57,SE,135,0.4,0.4,90,0.00,,,0.00,WUHU216HW,2013-08-08 04:01:00,
2013-08-08 00:06:00,70.2,67.1,29.57,SE,135,0.4,0.4,90,0.00,,,0.00,WUHU216HW,2013-08-08 04:06:00,
2013-08-08 00:30:00,70.4,67.6,29.58,SE,135,0.0,0.0,91,0.00,,,0.00,WUHU216HW,2013-08-08 04:30:00,
2013-08-08 00:35:00,70.4,67.6,29.58,SE,135,0.0,0.0,91,0.00,,,0.00,WUHU216HW,2013-08-08 04:35:00,
2013-08-08 01:00:00,70.4,67.6,29.58,SE,135,0.0,0.0,91,0.00,,,0.00,WUHU216HW,2013-08-08 05:00:00,
2013-08-08 01:05:00,70.4,67.6,29.58,SE,135,0.0,0.0,91,0.00,,,0.00,WUHU216HW,2013-08-08 05:05:00,
2013-08-08 01:30:00,70.2,67.4,29.58,SE,135,0.0,0.0,91,0.00,,,0.00,WUHU216HW,2013-08-08 05:30:00,
2013-08-08 01:35:00,70.2,67.4,29.58,SE,135,0.0,0.0,91,0.00,,,0.00,WUHU216HW,2013-08-08 05:35:00,
2013-08-08 02:00:00,70.0,67.2,29.57,SE,135,0.0,0.0,91,0.00,,,0.00,WUHU216HW,2013-08-08 06:00:00,
2013-08-08 02:05:00,70.0,67.2,29.57,SE,135,0.0,0.0,91,0.00,,,0.00,WUHU216HW,2013-08-08 06:05:00,
2013-08-08 02:30:00,69.7,66.9,29.57,SSW,203,0.0,0.0,91,0.00,,,0.00,WUHU216HW,2013-08-08 06:30:00,
2013-08-08 02:35:00,69.7,66.9,29.57,SSW,203,0.0,0.0,91,0.00,,,0.00,WUHU216HW,2013-08-08 06:35:00,
2013-08-08 03:00:00,69.5,66.7,29.56,South,180,0.0,0.0,91,0.00,,,0.00,WUHU216HW,2013-08-08 07:00:00,
2013-08-08 03:05:00,69.5,66.7,29.56,South,180,0.0,0.0,91,0.00,,,0.00,WUHU216HW,2013-08-08 07:05:00,
2013-08-08 03:30:00,69.3,66.5,29.56,South,180,0.0,0.0,91,0.00,,,0.00,WUHU216HW,2013-08-08 07:30:00,
2013-08-08 03:35:00,69.3,66.5,29.56,South,180,0.0,0.0,91,0.00,,,0.00,WUHU216HW,2013-08-08 07:35:00,
2013-08-08 04:00:00,68.9,66.2,29.56,South,180,0.2,0.2,91,0.00,,,0.00,WUHU216HW,2013-08-08 08:00:00,
2013-08-08 04:05:00,68.9,66.2,29.56,South,180,0.2,0.2,91,0.00,,,0.00,WUHU216HW,2013-08-08 08:05:00,
2013-08-08 04:30:00,68.6,65.8,29.55,South,180,0.0,0.0,91,0.00,,,0.00,WUHU216HW,2013-08-08 08:30:00,
2013-08-08 04:35:00,68.6,65.8,29.55,South,180,0.0,0.0,91,0.00,,,0.00,WUHU216HW,2013-08-08 08:35:00,
2013-08-08 05:00:00,68.6,65.8,29.55,South,180,0.0,0.0,91,0.00,,,0.00,WUHU216HW,2013-08-08 09:00:00,
2013-08-08 05:05:00,68.6,65.8,29.55,South,180,0.0,0.0,91,0.00,,,0.00,WUHU216HW,2013-08-08 09:05:00,
2013-08-08 05:10:00,68.6,65.8,29.55,South,180,0.0,0.0,91,0.00,,,0.00,WUHU216HW,2013-08-08 09:10:00,
2013-08-08 05:30:00,68.4,66.0,29.55,South,180,0.0,0.0,92,0.00,,,0.00,WUHU216HW,2013-08-08 09:30:00,
2013-08-08 05:35:00,68.4,66.0,29.55,South,180,0.0,0.0,92,0.00,,,0.00,WUHU216HW,2013-08-08 09:35:00,
2013-08-08 06:00:00,68.2,65.8,29.56,South,180,0.0,0.0,92,0.00,,,0.00,WUHU216HW,2013-08-08 10:00:00,
2013-08-08 06:05:00,68.2,65.8,29.56,South,180,0.0,0.0,92,0.00,,,0.00,WUHU216HW,2013-08-08 10:05:00,
2013-08-08 06:30:00,68.0,65.6,29.56,SSE,158,0.0,0.0,92,0.00,,,0.00,WUHU216HW,2013-08-08 10:30:00,
2013-08-08 06:35:00,68.0,65.6,29.56,SSE,158,0.0,0.0,92,0.00,,,0.00,WUHU216HW,2013-08-08 10:35:00,
2013-08-08 07:00:00,68.0,65.6,29.56,SSE,158,0.0,0.0,92,0.00,,,0.00,WUHU216HW,2013-08-08 11:00:00,
2013-08-08 07:05:00,68.0,65.6,29.56,SSE,158,0.0,0.0,92,0.00,,,0.00,WUHU216HW,2013-08-08 11:05:00,
2013-08-08 07:30:00,68.6,66.2,29.56,SSE,158,0.0,0.0,92,0.00,,,0.00,WUHU216HW,2013-08-08 11:30:00,
2013-08-08 07:35:00,68.6,66.2,29.56,SSE,158,0.0,0.0,92,0.00,,,0.00,WUHU216HW,2013-08-08 11:35:00,
2013-08-08 08:00:00,69.5,67.1,29.58,SSE,158,0.0,0.0,92,0.00,,,0.00,WUHU216HW,2013-08-08 12:00:00,
2013-08-08 08:05:00,69.5,67.1,29.58,SSE,158,0.0,0.0,92,0.00,,,0.00,WUHU216HW,2013-08-08 12:05:00,
2013-08-08 08:30:00,70.6,68.1,29.58,North,0,0.0,0.0,92,0.00,,,0.00,WUHU216HW,2013-08-08 12:30:00,
2013-08-08 08:35:00,70.6,68.1,29.58,North,0,0.0,0.0,92,0.00,,,0.00,WUHU216HW,2013-08-08 12:35:00,
2013-08-08 09:00:00,71.5,69.0,29.57,SE,135,0.0,0.0,92,0.00,,,0.00,WUHU216HW,2013-08-08 13:00:00,
2013-08-08 09:05:00,71.5,69.0,29.57,SE,135,0.0,0.0,92,0.00,,,0.00,WUHU216HW,2013-08-08 13:05:00,
2013-08-08 09:30:00,72.9,70.5,29.57,ESE,113,0.4,0.4,92,0.00,,,0.00,WUHU216HW,2013-08-08 13:30:00,
2013-08-08 09:35:00,72.9,70.5,29.57,ESE,113,0.4,0.4,92,0.00,,,0.00,WUHU216HW,2013-08-08 13:35:00,
2013-08-08 10:00:00,74.9,71.8,29.57,SSW,203,0.0,0.0,90,0.00,,,0.00,WUHU216HW,2013-08-08 14:00:00,
2013-08-08 10:05:00,74.9,71.8,29.57,SSW,203,0.0,0.0,90,0.00,,,0.00,WUHU216HW,2013-08-08 14:05:00,
2013-08-08 10:30:00,76.5,73.1,29.57,ENE,68,0.9,0.9,89,0.00,,,0.00,WUHU216HW,2013-08-08 14:30:00,
2013-08-08 10:35:00,76.5,73.1,29.57,ENE,68,0.9,0.9,89,0.00,,,0.00,WUHU216HW,2013-08-08 14:35:00,
2013-08-08 10:40:00,76.5,73.1,29.57,ENE,68,0.9,0.9,89,0.00,,,0.00,WUHU216HW,2013-08-08 14:40:00,
2013-08-08 11:00:00,77.6,71.6,29.57,SSE,158,3.1,3.1,82,0.00,,,0.00,WUHU216HW,2013-08-08 15:00:00,
2013-08-08 11:05:00,77.6,71.6,29.57,SSE,158,3.1,3.1,82,0.00,,,0.00,WUHU216HW,2013-08-08 15:05:00,
2013-08-08 11:30:00,78.1,71.8,29.57,SSE,158,0.4,0.4,81,0.00,,,0.00,WUHU216HW,2013-08-08 15:30:00,
2013-08-08 11:35:00,78.1,71.8,29.57,SSE,158,0.4,0.4,81,0.00,,,0.00,WUHU216HW,2013-08-08 15:35:00,
2013-08-08 12:00:00,78.8,72.2,29.57,SE,135,3.4,3.4,80,0.00,,,0.00,WUHU216HW,2013-08-08 16:00:00,
2013-08-08 12:05:00,78.8,72.2,29.57,SE,135,3.4,3.4,80,0.00,,,0.00,WUHU216HW,2013-08-08 16:05:00,
2013-08-08 12:30:00,78.8,72.2,29.57,West,270,1.1,1.1,80,0.00,,,0.00,WUHU216HW,2013-08-08 16:30:00,
2013-08-08 12:35:00,78.8,72.2,29.57,West,270,1.1,1.1,80,0.00,,,0.00,WUHU216HW,2013-08-08 16:35:00,
2013-08-08 13:00:00,78.8,71.8,29.57,SE,135,3.6,3.6,79,0.00,,,0.00,WUHU216HW,2013-08-08 17:00:00,
2013-08-08 13:05:00,78.8,71.8,29.57,SE,135,3.6,3.6,79,0.00,,,0.00,WUHU216HW,2013-08-08 17:05:00,
2013-08-08 13:30:00,78.8,72.5,29.56,SSW,203,1.3,1.3,81,0.00,,,0.00,WUHU216HW,2013-08-08 17:30:00,
2013-08-08 13:35:00,78.8,72.5,29.56,SSW,203,1.3,1.3,81,0.00,,,0.00,WUHU216HW,2013-08-08 17:35:00,
2013-08-08 14:00:00,80.3,72.8,29.56,SSE,158,2.9,2.9,78,0.00,,,0.00,WUHU216HW,2013-08-08 18:00:00,
2013-08-08 14:05:00,80.3,72.8,29.56,SSE,158,2.9,2.9,78,0.00,,,0.00,WUHU216HW,2013-08-08 18:05:00,
2013-08-08 14:30:00,79.6,72.9,29.56,SE,135,0.9,0.9,80,0.00,,,0.00,WUHU216HW,2013-08-08 18:30:00,
2013-08-08 14:35:00,79.6,72.9,29.56,SE,135,0.9,0.9,80,0.00,,,0.00,WUHU216HW,2013-08-08 18:35:00,
2013-08-08 15:00:00,79.2,73.6,29.55,SE,135,0.0,0.0,83,0.00,,,0.00,WUHU216HW,2013-08-08 19:00:00,
2013-08-08 15:05:00,79.2,73.6,29.55,SE,135,0.0,0.0,83,0.00,,,0.00,WUHU216HW,2013-08-08 19:05:00,
2013-08-08 15:29:00,78.8,73.3,29.55,SW,225,0.2,0.2,83,0.00,,,0.00,WUHU216HW,2013-08-08 19:29:00,
2013-08-08 15:34:00,78.8,73.3,29.55,SW,225,0.2,0.2,83,0.00,,,0.00,WUHU216HW,2013-08-08 19:34:00,
2013-08-08 16:00:00,79.2,73.6,29.53,SSE,158,2.5,2.5,83,0.00,,,0.00,WUHU216HW,2013-08-08 20:00:00,
2013-08-08 16:04:00,79.2,73.6,29.53,SSE,158,2.5,2.5,83,0.00,,,0.00,WUHU216HW,2013-08-08 20:04:00,
2013-08-08 16:30:00,79.7,73.8,29.53,SE,135,1.1,1.1,82,0.00,,,0.00,WUHU216HW,2013-08-08 20:30:00,
2013-08-08 16:35:00,79.7,73.8,29.53,SE,135,1.1,1.1,82,0.00,,,0.00,WUHU216HW,2013-08-08 20:35:00,
2013-08-08 17:00:00,79.6,73.6,29.52,SE,135,2.2,2.2,82,0.00,,,0.00,WUHU216HW,2013-08-08 21:00:00,
2013-08-08 17:05:00,79.6,73.6,29.52,SE,135,2.2,2.2,82,0.00,,,0.00,WUHU216HW,2013-08-08 21:05:00,
2013-08-08 17:30:00,80.3,74.0,29.52,SSE,158,1.8,1.8,81,0.00,,,0.00,WUHU216HW,2013-08-08 21:30:00,
2013-08-08 17:35:00,80.3,74.0,29.52,SSE,158,1.8,1.8,81,0.00,,,0.00,WUHU216HW,2013-08-08 21:35:00,
2013-08-08 18:00:00,80.3,73.6,29.52,SSE,158,1.8,1.8,80,0.00,,,0.00,WUHU216HW,2013-08-08 22:00:00,
2013-08-08 18:05:00,80.3,73.6,29.52,SSE,158,1.8,1.8,80,0.00,,,0.00,WUHU216HW,2013-08-08 22:05:00,
2013-08-08 18:30:00,79.2,72.9,29.52,SSW,203,1.1,1.1,81,0.00,,,0.00,WUHU216HW,2013-08-08 22:30:00,
2013-08-08 18:35:00,79.2,72.9,29.52,SSW,203,1.1,1.1,81,0.00,,,0.00,WUHU216HW,2013-08-08 22:35:00,
2013-08-08 19:00:00,78.3,72.4,29.53,SE,135,0.4,0.4,82,0.00,,,0.00,WUHU216HW,2013-08-08 23:00:00,
2013-08-08 19:05:00,78.3,72.4,29.53,SE,135,0.4,0.4,82,0.00,,,0.00,WUHU216HW,2013-08-08 23:05:00,
2013-08-08 19:30:00,76.7,71.8,29.53,SSE,158,1.8,1.8,85,0.06,,,0.00,WUHU216HW,2013-08-08 23:30:00,
2013-08-08 19:35:00,76.7,71.8,29.53,SSE,158,1.8,1.8,85,0.06,,,0.00,WUHU216HW,2013-08-08 23:35:00,
2013-08-08 20:00:00,75.1,71.6,29.53,SE,135,2.2,2.2,89,0.08,,,0.06,WUHU216HW,2013-08-09 00:00:00,
2013-08-08 20:05:00,75.1,71.6,29.53,SE,135,2.2,2.2,89,0.08,,,0.06,WUHU216HW,2013-08-09 00:05:00,
2013-08-08 20:30:00,74.5,71.1,29.53,SSE,158,0.4,0.4,89,0.02,,,0.08,WUHU216HW,2013-08-09 00:30:00,
2013-08-08 20:35:00,74.5,71.1,29.53,SSE,158,0.4,0.4,89,0.02,,,0.08,WUHU216HW,2013-08-09 00:35:00,
2013-08-08 21:00:00,74.3,71.3,29.54,SSE,158,0.0,0.0,90,0.00,,,0.08,WUHU216HW,2013-08-09 01:00:00,
2013-08-08 21:05:00,74.3,71.3,29.54,SSE,158,0.0,0.0,90,0.00,,,0.08,WUHU216HW,2013-08-09 01:05:00,
2013-08-08 21:30:00,74.2,71.1,29.54,SSE,158,0.0,0.0,90,0.00,,,0.08,WUHU216HW,2013-08-09 01:30:00,
2013-08-08 21:35:00,74.2,71.1,29.54,SSE,158,0.0,0.0,90,0.00,,,0.08,WUHU216HW,2013-08-09 01:35:00,
2013-08-08 22:00:00,73.8,71.0,29.55,SSE,158,0.0,0.0,91,0.00,,,0.08,WUHU216HW,2013-08-09 02:00:00,
2013-08-08 22:05:00,73.8,71.0,29.55,SSE,158,0.0,0.0,91,0.00,,,0.08,WUHU216HW,2013-08-09 02:05:00,
2013-08-08 22:30:00,73.6,70.8,29.54,SE,135,0.0,0.0,91,0.02,,,0.08,WUHU216HW,2013-08-09 02:30:00,
2013-08-08 22:35:00,73.6,70.8,29.54,SE,135,0.0,0.0,91,0.02,,,0.08,WUHU216HW,2013-08-09 02:35:00,
2013-08-08 23:00:00,73.4,70.7,29.53,SE,135,0.0,0.0,91,0.02,,,0.10,WUHU216HW,2013-08-09 03:00:00,
2013-08-08 23:05:00,73.4,70.7,29.53,SE,135,0.0,0.0,91,0.02,,,0.10,WUHU216HW,2013-08-09 03:05:00,
2013-08-08 23:30:00,73.3,70.8,29.53,SE,135,0.0,0.0,92,0.00,,,0.10,WUHU216HW,2013-08-09 03:30:00,
2013-08-08 23:35:00,73.3,70.8,29.53,SE,135,0.0,0.0,92,0.00,,,0.10,WUHU216HW,2013-08-09 03:35:00,